sensor_id;sensor_type;location;lat;lon;timestamp;P1;durP1;ratioP1;P2;durP2;ratioP2
9409;SDS011;4744;52.576;13.568;2023-04-24T00:02:00;5.10;;;4.70;;
9409;SDS011;4744;52.576;13.568;2023-04-24T00:04:29;4.90;;;4.57;;
9409;SDS011;4744;52.576;13.568;2023-04-24T00:06:56;4.68;;;4.28;;
9409;SDS011;4744;52.576;13.568;2023-04-24T00:09:25;4.72;;;4.32;;
9409;SDS011;4744;52.576;13.568;2023-04-24T00:14:23;5.15;;;4.75;;
9409;SDS011;4744;52.576;13.568;2023-04-24T00:16:51;5.65;;;4.97;;
9409;SDS011;4744;52.576;13.568;2023-04-24T00:19:18;5.00;;;4.60;;
9409;SDS011;4744;52.576;13.568;2023-04-24T00:21:47;5.68;;;5.28;;
9409;SDS011;4744;52.576;13.568;2023-04-24T00:24:15;5.45;;;4.95;;
9409;SDS011;4744;52.576;13.568;2023-04-24T00:26:43;5.78;;;5.28;;
9409;SDS011;4744;52.576;13.568;2023-04-24T00:29:10;5.47;;;4.93;;
9409;SDS011;4744;52.576;13.568;2023-04-24T00:31:36;5.65;;;5.13;;
9409;SDS011;4744;52.576;13.568;2023-04-24T00:34:05;5.47;;;5.07;;
9409;SDS011;4744;52.576;13.568;2023-04-24T00:36:32;6.13;;;5.45;;
9409;SDS011;4744;52.576;13.568;2023-04-24T00:39:00;6.13;;;5.60;;
9409;SDS011;4744;52.576;13.568;2023-04-24T00:41:27;6.10;;;5.60;;
9409;SDS011;4744;52.576;13.568;2023-04-24T00:43:54;5.68;;;5.28;;
9409;SDS011;4744;52.576;13.568;2023-04-24T00:46:21;6.07;;;5.57;;
9409;SDS011;4744;52.576;13.568;2023-04-24T00:48:48;6.20;;;5.70;;
9409;SDS011;4744;52.576;13.568;2023-04-24T00:51:16;5.75;;;5.25;;
9409;SDS011;4744;52.576;13.568;2023-04-24T00:53:43;6.85;;;5.50;;
9409;SDS011;4744;52.576;13.568;2023-04-24T00:56:10;5.93;;;5.43;;
9409;SDS011;4744;52.576;13.568;2023-04-24T00:58:37;6.10;;;5.20;;
9409;SDS011;4744;52.576;13.568;2023-04-24T01:01:05;6.05;;;5.50;;
9409;SDS011;4744;52.576;13.568;2023-04-24T01:03:32;5.70;;;5.20;;
9409;SDS011;4744;52.576;13.568;2023-04-24T01:06:02;6.00;;;5.50;;
9409;SDS011;4744;52.576;13.568;2023-04-24T01:08:31;6.47;;;5.88;;
9409;SDS011;4744;52.576;13.568;2023-04-24T01:11:00;5.75;;;5.28;;
9409;SDS011;4744;52.576;13.568;2023-04-24T01:13:30;5.60;;;5.20;;
9409;SDS011;4744;52.576;13.568;2023-04-24T01:15:57;6.03;;;5.53;;
9409;SDS011;4744;52.576;13.568;2023-04-24T01:18:26;5.60;;;5.20;;
9409;SDS011;4744;52.576;13.568;2023-04-24T01:20:54;6.93;;;5.50;;
9409;SDS011;4744;52.576;13.568;2023-04-24T01:23:24;6.28;;;5.72;;
9409;SDS011;4744;52.576;13.568;2023-04-24T01:25:52;5.70;;;5.20;;
9409;SDS011;4744;52.576;13.568;2023-04-24T01:28:19;6.00;;;5.50;;
9409;SDS011;4744;52.576;13.568;2023-04-24T01:30:46;6.07;;;5.47;;
9409;SDS011;4744;52.576;13.568;2023-04-24T01:33:13;5.63;;;5.10;;
9409;SDS011;4744;52.576;13.568;2023-04-24T01:35:40;5.95;;;5.45;;
9409;SDS011;4744;52.576;13.568;2023-04-24T01:38:07;5.57;;;5.13;;
9409;SDS011;4744;52.576;13.568;2023-04-24T01:40:35;6.55;;;5.95;;
9409;SDS011;4744;52.576;13.568;2023-04-24T01:43:02;7.03;;;6.32;;
9409;SDS011;4744;52.576;13.568;2023-04-24T01:45:29;6.25;;;5.75;;
9409;SDS011;4744;52.576;13.568;2023-04-24T01:47:56;7.15;;;6.50;;
9409;SDS011;4744;52.576;13.568;2023-04-24T01:50:23;6.97;;;6.30;;
9409;SDS011;4744;52.576;13.568;2023-04-24T01:52:50;6.25;;;5.75;;
9409;SDS011;4744;52.576;13.568;2023-04-24T01:55:17;6.60;;;5.93;;
9409;SDS011;4744;52.576;13.568;2023-04-24T01:57:45;6.43;;;5.93;;
9409;SDS011;4744;52.576;13.568;2023-04-24T02:00:13;6.00;;;5.50;;
9409;SDS011;4744;52.576;13.568;2023-04-24T02:02:40;6.05;;;5.45;;
9409;SDS011;4744;52.576;13.568;2023-04-24T02:05:08;6.30;;;5.75;;
9409;SDS011;4744;52.576;13.568;2023-04-24T02:07:36;6.20;;;5.57;;
9409;SDS011;4744;52.576;13.568;2023-04-24T02:10:03;6.32;;;5.72;;
9409;SDS011;4744;52.576;13.568;2023-04-24T02:12:31;6.32;;;5.82;;
9409;SDS011;4744;52.576;13.568;2023-04-24T02:14:59;5.75;;;5.35;;
9409;SDS011;4744;52.576;13.568;2023-04-24T02:17:26;6.38;;;5.88;;
9409;SDS011;4744;52.576;13.568;2023-04-24T02:19:53;6.05;;;5.55;;
9409;SDS011;4744;52.576;13.568;2023-04-24T02:22:20;5.90;;;5.40;;
9409;SDS011;4744;52.576;13.568;2023-04-24T02:24:47;6.18;;;5.68;;
9409;SDS011;4744;52.576;13.568;2023-04-24T02:27:14;5.93;;;5.43;;
9409;SDS011;4744;52.576;13.568;2023-04-24T02:29:40;6.90;;;5.88;;
9409;SDS011;4744;52.576;13.568;2023-04-24T02:32:09;6.38;;;5.78;;
9409;SDS011;4744;52.576;13.568;2023-04-24T02:34:37;5.95;;;5.35;;
9409;SDS011;4744;52.576;13.568;2023-04-24T02:37:03;5.90;;;5.40;;
9409;SDS011;4744;52.576;13.568;2023-04-24T02:39:30;6.10;;;5.60;;
9409;SDS011;4744;52.576;13.568;2023-04-24T02:41:57;4.72;;;4.43;;
9409;SDS011;4744;52.576;13.568;2023-04-24T02:44:25;5.35;;;4.85;;
9409;SDS011;4744;52.576;13.568;2023-04-24T02:46:52;5.70;;;5.30;;
9409;SDS011;4744;52.576;13.568;2023-04-24T02:49:20;5.93;;;5.43;;
9409;SDS011;4744;52.576;13.568;2023-04-24T02:51:47;6.57;;;5.97;;
9409;SDS011;4744;52.576;13.568;2023-04-24T02:54:14;6.22;;;5.72;;
9409;SDS011;4744;52.576;13.568;2023-04-24T02:56:40;6.80;;;6.15;;
9409;SDS011;4744;52.576;13.568;2023-04-24T02:59:07;7.13;;;5.88;;
9409;SDS011;4744;52.576;13.568;2023-04-24T03:01:35;5.93;;;5.43;;
9409;SDS011;4744;52.576;13.568;2023-04-24T03:04:02;5.65;;;5.15;;
9409;SDS011;4744;52.576;13.568;2023-04-24T03:06:31;5.25;;;4.85;;
9409;SDS011;4744;52.576;13.568;2023-04-24T03:09:00;5.50;;;5.05;;
9409;SDS011;4744;52.576;13.568;2023-04-24T03:11:27;6.25;;;5.75;;
9409;SDS011;4744;52.576;13.568;2023-04-24T03:13:54;6.05;;;5.55;;
9409;SDS011;4744;52.576;13.568;2023-04-24T03:16:21;6.00;;;5.50;;
9409;SDS011;4744;52.576;13.568;2023-04-24T03:18:48;5.32;;;4.93;;
9409;SDS011;4744;52.576;13.568;2023-04-24T03:21:15;5.55;;;5.15;;
9409;SDS011;4744;52.576;13.568;2023-04-24T03:23:43;5.85;;;5.35;;
9409;SDS011;4744;52.576;13.568;2023-04-24T03:26:10;6.40;;;5.90;;
9409;SDS011;4744;52.576;13.568;2023-04-24T03:28:37;6.38;;;5.88;;
9409;SDS011;4744;52.576;13.568;2023-04-24T03:31:04;6.43;;;5.82;;
9409;SDS011;4744;52.576;13.568;2023-04-24T03:33:30;6.10;;;5.60;;
9409;SDS011;4744;52.576;13.568;2023-04-24T03:35:57;5.72;;;5.32;;
9409;SDS011;4744;52.576;13.568;2023-04-24T03:38:24;6.03;;;5.63;;
9409;SDS011;4744;52.576;13.568;2023-04-24T03:40:53;5.90;;;5.40;;
9409;SDS011;4744;52.576;13.568;2023-04-24T03:43:20;6.43;;;5.93;;
9409;SDS011;4744;52.576;13.568;2023-04-24T03:45:46;6.68;;;5.68;;
9409;SDS011;4744;52.576;13.568;2023-04-24T03:48:13;6.90;;;5.70;;
9409;SDS011;4744;52.576;13.568;2023-04-24T03:50:40;5.65;;;5.15;;
9409;SDS011;4744;52.576;13.568;2023-04-24T03:53:07;6.07;;;5.55;;
9409;SDS011;4744;52.576;13.568;2023-04-24T03:55:34;6.07;;;5.57;;
9409;SDS011;4744;52.576;13.568;2023-04-24T03:58:02;5.40;;;5.00;;
9409;SDS011;4744;52.576;13.568;2023-04-24T04:00:29;5.70;;;5.25;;
9409;SDS011;4744;52.576;13.568;2023-04-24T04:02:58;5.07;;;4.68;;
9409;SDS011;4744;52.576;13.568;2023-04-24T04:05:25;6.00;;;5.50;;
9409;SDS011;4744;52.576;13.568;2023-04-24T04:07:52;5.88;;;5.38;;
9409;SDS011;4744;52.576;13.568;2023-04-24T04:10:19;5.28;;;4.80;;
9409;SDS011;4744;52.576;13.568;2023-04-24T04:12:46;6.05;;;5.55;;
9409;SDS011;4744;52.576;13.568;2023-04-24T04:15:14;6.45;;;5.85;;
9409;SDS011;4744;52.576;13.568;2023-04-24T04:17:41;5.88;;;5.38;;
9409;SDS011;4744;52.576;13.568;2023-04-24T04:20:08;6.05;;;5.45;;
9409;SDS011;4744;52.576;13.568;2023-04-24T04:22:35;5.85;;;5.35;;
9409;SDS011;4744;52.576;13.568;2023-04-24T04:25:03;5.88;;;5.45;;
9409;SDS011;4744;52.576;13.568;2023-04-24T04:27:30;5.45;;;4.97;;
9409;SDS011;4744;52.576;13.568;2023-04-24T04:29:57;5.70;;;4.93;;
9409;SDS011;4744;52.576;13.568;2023-04-24T04:32:27;5.75;;;5.25;;
9409;SDS011;4744;52.576;13.568;2023-04-24T04:34:54;6.07;;;5.40;;
9409;SDS011;4744;52.576;13.568;2023-04-24T04:37:21;5.93;;;5.43;;
9409;SDS011;4744;52.576;13.568;2023-04-24T04:39:48;5.70;;;5.20;;
9409;SDS011;4744;52.576;13.568;2023-04-24T04:42:15;5.47;;;4.97;;
9409;SDS011;4744;52.576;13.568;2023-04-24T04:44:42;5.07;;;4.68;;
9409;SDS011;4744;52.576;13.568;2023-04-24T04:47:10;5.60;;;5.10;;
9409;SDS011;4744;52.576;13.568;2023-04-24T04:49:38;6.07;;;5.43;;
9409;SDS011;4744;52.576;13.568;2023-04-24T04:52:06;5.78;;;5.28;;
9409;SDS011;4744;52.576;13.568;2023-04-24T04:54:33;5.57;;;5.18;;
9409;SDS011;4744;52.576;13.568;2023-04-24T04:57:00;5.68;;;5.28;;
9409;SDS011;4744;52.576;13.568;2023-04-24T04:59:27;5.90;;;5.40;;
9409;SDS011;4744;52.576;13.568;2023-04-24T05:01:54;5.30;;;4.90;;
9409;SDS011;4744;52.576;13.568;2023-04-24T05:04:20;5.30;;;4.90;;
9409;SDS011;4744;52.576;13.568;2023-04-24T05:06:49;6.93;;;5.55;;
9409;SDS011;4744;52.576;13.568;2023-04-24T05:09:17;5.53;;;5.03;;
9409;SDS011;4744;52.576;13.568;2023-04-24T05:11:43;6.78;;;5.50;;
9409;SDS011;4744;52.576;13.568;2023-04-24T05:14:10;5.40;;;5.00;;
9409;SDS011;4744;52.576;13.568;2023-04-24T05:16:38;5.75;;;5.03;;
9409;SDS011;4744;52.576;13.568;2023-04-24T05:19:05;4.95;;;4.55;;
9409;SDS011;4744;52.576;13.568;2023-04-24T05:21:32;4.53;;;4.22;;
9409;SDS011;4744;52.576;13.568;2023-04-24T05:24:00;4.65;;;4.30;;
9409;SDS011;4744;52.576;13.568;2023-04-24T05:26:27;4.28;;;3.97;;
9409;SDS011;4744;52.576;13.568;2023-04-24T05:28:54;4.30;;;4.00;;
9409;SDS011;4744;52.576;13.568;2023-04-24T05:31:21;4.90;;;4.50;;
9409;SDS011;4744;52.576;13.568;2023-04-24T05:33:48;3.97;;;3.67;;
9409;SDS011;4744;52.576;13.568;2023-04-24T05:36:15;4.80;;;4.32;;
9409;SDS011;4744;52.576;13.568;2023-04-24T05:38:42;4.00;;;3.70;;
9409;SDS011;4744;52.576;13.568;2023-04-24T05:41:10;4.00;;;3.70;;
9409;SDS011;4744;52.576;13.568;2023-04-24T05:43:37;3.97;;;3.60;;
9409;SDS011;4744;52.576;13.568;2023-04-24T05:46:04;5.95;;;3.80;;
9409;SDS011;4744;52.576;13.568;2023-04-24T05:48:31;4.05;;;3.75;;
9409;SDS011;4744;52.576;13.568;2023-04-24T05:50:59;6.78;;;3.92;;
9409;SDS011;4744;52.576;13.568;2023-04-24T05:53:26;3.92;;;3.60;;
9409;SDS011;4744;52.576;13.568;2023-04-24T05:55:53;4.40;;;3.38;;
9409;SDS011;4744;52.576;13.568;2023-04-24T05:58:21;4.13;;;3.17;;
9409;SDS011;4744;52.576;13.568;2023-04-24T06:00:48;4.32;;;3.00;;
9409;SDS011;4744;52.576;13.568;2023-04-24T06:03:15;3.55;;;3.25;;
9409;SDS011;4744;52.576;13.568;2023-04-24T06:05:41;3.42;;;3.13;;
9409;SDS011;4744;52.576;13.568;2023-04-24T06:08:09;2.88;;;2.60;;
9409;SDS011;4744;52.576;13.568;2023-04-24T06:10:36;3.80;;;2.97;;
9409;SDS011;4744;52.576;13.568;2023-04-24T06:13:03;6.43;;;2.60;;
9409;SDS011;4744;52.576;13.568;2023-04-24T06:15:31;3.80;;;2.38;;
9409;SDS011;4744;52.576;13.568;2023-04-24T06:17:59;4.07;;;2.55;;
9409;SDS011;4744;52.576;13.568;2023-04-24T06:20:26;2.85;;;2.65;;
9409;SDS011;4744;52.576;13.568;2023-04-24T06:22:53;2.90;;;2.35;;
9409;SDS011;4744;52.576;13.568;2023-04-24T06:25:20;5.40;;;2.80;;
9409;SDS011;4744;52.576;13.568;2023-04-24T06:27:47;4.20;;;2.22;;
9409;SDS011;4744;52.576;13.568;2023-04-24T06:30:14;2.42;;;2.10;;
9409;SDS011;4744;52.576;13.568;2023-04-24T06:32:42;3.05;;;2.05;;
9409;SDS011;4744;52.576;13.568;2023-04-24T06:35:09;1.88;;;1.77;;
9409;SDS011;4744;52.576;13.568;2023-04-24T06:37:37;2.47;;;1.92;;
9409;SDS011;4744;52.576;13.568;2023-04-24T06:40:05;1.70;;;1.60;;
9409;SDS011;4744;52.576;13.568;2023-04-24T06:42:33;1.73;;;1.52;;
9409;SDS011;4744;52.576;13.568;2023-04-24T06:45:00;1.80;;;1.70;;
9409;SDS011;4744;52.576;13.568;2023-04-24T06:47:28;1.88;;;1.70;;
9409;SDS011;4744;52.576;13.568;2023-04-24T06:49:57;1.65;;;1.50;;
9409;SDS011;4744;52.576;13.568;2023-04-24T06:52:23;1.75;;;1.63;;
9409;SDS011;4744;52.576;13.568;2023-04-24T06:54:50;1.80;;;1.70;;
9409;SDS011;4744;52.576;13.568;2023-04-24T06:57:17;2.08;;;1.58;;
9409;SDS011;4744;52.576;13.568;2023-04-24T06:59:45;1.50;;;1.40;;
9409;SDS011;4744;52.576;13.568;2023-04-24T07:02:12;1.30;;;1.30;;
9409;SDS011;4744;52.576;13.568;2023-04-24T07:04:39;1.52;;;1.42;;
9409;SDS011;4744;52.576;13.568;2023-04-24T07:07:08;1.42;;;1.33;;
9409;SDS011;4744;52.576;13.568;2023-04-24T07:09:38;1.58;;;1.48;;
9409;SDS011;4744;52.576;13.568;2023-04-24T07:12:06;1.63;;;1.52;;
9409;SDS011;4744;52.576;13.568;2023-04-24T07:14:33;2.78;;;1.75;;
9409;SDS011;4744;52.576;13.568;2023-04-24T07:17:01;2.97;;;1.85;;
9409;SDS011;4744;52.576;13.568;2023-04-24T07:19:28;1.48;;;1.38;;
9409;SDS011;4744;52.576;13.568;2023-04-24T07:21:55;2.13;;;1.20;;
9409;SDS011;4744;52.576;13.568;2023-04-24T07:24:24;1.75;;;1.23;;
9409;SDS011;4744;52.576;13.568;2023-04-24T07:26:51;2.35;;;1.38;;
9409;SDS011;4744;52.576;13.568;2023-04-24T07:29:19;1.63;;;1.38;;
9409;SDS011;4744;52.576;13.568;2023-04-24T07:31:46;1.33;;;1.20;;
9409;SDS011;4744;52.576;13.568;2023-04-24T07:34:13;1.50;;;1.40;;
9409;SDS011;4744;52.576;13.568;2023-04-24T07:36:40;1.15;;;1.08;;
9409;SDS011;4744;52.576;13.568;2023-04-24T07:39:07;1.27;;;1.10;;
9409;SDS011;4744;52.576;13.568;2023-04-24T07:41:35;1.75;;;1.30;;
9409;SDS011;4744;52.576;13.568;2023-04-24T07:44:02;1.13;;;1.02;;
9409;SDS011;4744;52.576;13.568;2023-04-24T07:46:30;2.78;;;1.00;;
9409;SDS011;4744;52.576;13.568;2023-04-24T07:48:57;0.80;;;0.80;;
9409;SDS011;4744;52.576;13.568;2023-04-24T07:51:24;1.00;;;1.00;;
9409;SDS011;4744;52.576;13.568;2023-04-24T07:53:52;0.73;;;0.73;;
9409;SDS011;4744;52.576;13.568;2023-04-24T07:56:19;0.80;;;0.75;;
9409;SDS011;4744;52.576;13.568;2023-04-24T07:58:48;0.68;;;0.68;;
9409;SDS011;4744;52.576;13.568;2023-04-24T08:01:14;1.00;;;0.88;;
9409;SDS011;4744;52.576;13.568;2023-04-24T08:03:41;0.65;;;0.65;;
9409;SDS011;4744;52.576;13.568;2023-04-24T08:06:08;0.70;;;0.70;;
9409;SDS011;4744;52.576;13.568;2023-04-24T08:08:35;0.80;;;0.80;;
9409;SDS011;4744;52.576;13.568;2023-04-24T08:11:02;0.70;;;0.70;;
9409;SDS011;4744;52.576;13.568;2023-04-24T08:13:29;0.60;;;0.60;;
9409;SDS011;4744;52.576;13.568;2023-04-24T08:15:58;0.98;;;0.57;;
9409;SDS011;4744;52.576;13.568;2023-04-24T08:18:24;0.50;;;0.50;;
9409;SDS011;4744;52.576;13.568;2023-04-24T08:20:51;0.50;;;0.50;;
9409;SDS011;4744;52.576;13.568;2023-04-24T08:23:18;0.98;;;0.60;;
9409;SDS011;4744;52.576;13.568;2023-04-24T08:25:45;0.70;;;0.47;;
9409;SDS011;4744;52.576;13.568;2023-04-24T08:28:12;0.80;;;0.80;;
9409;SDS011;4744;52.576;13.568;2023-04-24T08:30:45;1.45;;;0.68;;
9409;SDS011;4744;52.576;13.568;2023-04-24T08:33:13;1.23;;;0.88;;
9409;SDS011;4744;52.576;13.568;2023-04-24T08:35:40;0.70;;;0.70;;
9409;SDS011;4744;52.576;13.568;2023-04-24T08:38:07;0.73;;;0.73;;
9409;SDS011;4744;52.576;13.568;2023-04-24T08:40:34;0.55;;;0.55;;
9409;SDS011;4744;52.576;13.568;2023-04-24T08:43:01;2.75;;;0.60;;
9409;SDS011;4744;52.576;13.568;2023-04-24T08:45:29;0.60;;;0.60;;
9409;SDS011;4744;52.576;13.568;2023-04-24T08:47:56;1.10;;;0.68;;
9409;SDS011;4744;52.576;13.568;2023-04-24T08:50:26;0.75;;;0.50;;
9409;SDS011;4744;52.576;13.568;2023-04-24T08:52:54;0.85;;;0.45;;
9409;SDS011;4744;52.576;13.568;2023-04-24T08:55:22;0.52;;;0.52;;
9409;SDS011;4744;52.576;13.568;2023-04-24T08:57:51;0.60;;;0.60;;
9409;SDS011;4744;52.576;13.568;2023-04-24T09:00:20;0.68;;;0.68;;
9409;SDS011;4744;52.576;13.568;2023-04-24T09:02:48;0.77;;;0.77;;
9409;SDS011;4744;52.576;13.568;2023-04-24T09:05:16;0.38;;;0.38;;
9409;SDS011;4744;52.576;13.568;2023-04-24T09:07:46;0.95;;;0.80;;
9409;SDS011;4744;52.576;13.568;2023-04-24T09:10:18;0.75;;;0.60;;
9409;SDS011;4744;52.576;13.568;2023-04-24T09:12:47;1.70;;;0.80;;
9409;SDS011;4744;52.576;13.568;2023-04-24T09:15:15;1.38;;;0.80;;
9409;SDS011;4744;52.576;13.568;2023-04-24T09:17:43;0.82;;;0.60;;
9409;SDS011;4744;52.576;13.568;2023-04-24T09:20:10;0.65;;;0.65;;
9409;SDS011;4744;52.576;13.568;2023-04-24T09:22:37;2.80;;;1.00;;
9409;SDS011;4744;52.576;13.568;2023-04-24T09:25:06;1.83;;;0.98;;
9409;SDS011;4744;52.576;13.568;2023-04-24T09:27:37;0.60;;;0.60;;
9409;SDS011;4744;52.576;13.568;2023-04-24T09:30:09;0.90;;;0.82;;
9409;SDS011;4744;52.576;13.568;2023-04-24T09:32:36;1.65;;;1.00;;
9409;SDS011;4744;52.576;13.568;2023-04-24T09:35:10;1.17;;;0.80;;
9409;SDS011;4744;52.576;13.568;2023-04-24T09:37:38;0.95;;;0.50;;
9409;SDS011;4744;52.576;13.568;2023-04-24T09:40:09;0.70;;;0.70;;
9409;SDS011;4744;52.576;13.568;2023-04-24T09:42:37;0.52;;;0.52;;
9409;SDS011;4744;52.576;13.568;2023-04-24T09:45:06;0.50;;;0.50;;
9409;SDS011;4744;52.576;13.568;2023-04-24T09:47:36;0.60;;;0.60;;
9409;SDS011;4744;52.576;13.568;2023-04-24T09:50:09;0.70;;;0.70;;
9409;SDS011;4744;52.576;13.568;2023-04-24T09:52:39;0.60;;;0.60;;
9409;SDS011;4744;52.576;13.568;2023-04-24T09:55:13;0.70;;;0.70;;
9409;SDS011;4744;52.576;13.568;2023-04-24T09:57:48;0.57;;;0.57;;
9409;SDS011;4744;52.576;13.568;2023-04-24T10:00:21;0.80;;;0.60;;
9409;SDS011;4744;52.576;13.568;2023-04-24T10:02:50;1.67;;;0.55;;
9409;SDS011;4744;52.576;13.568;2023-04-24T10:05:22;0.75;;;0.70;;
9409;SDS011;4744;52.576;13.568;2023-04-24T10:07:50;1.02;;;0.90;;
9409;SDS011;4744;52.576;13.568;2023-04-24T10:10:18;0.60;;;0.60;;
9409;SDS011;4744;52.576;13.568;2023-04-24T10:12:46;2.17;;;1.00;;
9409;SDS011;4744;52.576;13.568;2023-04-24T10:15:13;3.78;;;0.82;;
9409;SDS011;4744;52.576;13.568;2023-04-24T10:17:45;1.02;;;0.70;;
9409;SDS011;4744;52.576;13.568;2023-04-24T10:20:17;0.93;;;0.80;;
9409;SDS011;4744;52.576;13.568;2023-04-24T10:22:45;0.68;;;0.68;;
9409;SDS011;4744;52.576;13.568;2023-04-24T10:25:16;2.15;;;0.90;;
9409;SDS011;4744;52.576;13.568;2023-04-24T10:27:47;0.80;;;0.80;;
9409;SDS011;4744;52.576;13.568;2023-04-24T10:30:15;0.70;;;0.70;;
9409;SDS011;4744;52.576;13.568;2023-04-24T10:32:42;0.82;;;0.82;;
9409;SDS011;4744;52.576;13.568;2023-04-24T10:35:10;0.60;;;0.60;;
9409;SDS011;4744;52.576;13.568;2023-04-24T10:37:39;1.48;;;0.85;;
9409;SDS011;4744;52.576;13.568;2023-04-24T10:40:09;0.60;;;0.60;;
9409;SDS011;4744;52.576;13.568;2023-04-24T10:42:40;1.85;;;0.90;;
9409;SDS011;4744;52.576;13.568;2023-04-24T10:45:15;0.70;;;0.70;;
9409;SDS011;4744;52.576;13.568;2023-04-24T10:47:50;0.52;;;0.47;;
9409;SDS011;4744;52.576;13.568;2023-04-24T10:50:18;0.80;;;0.80;;
9409;SDS011;4744;52.576;13.568;2023-04-24T10:52:45;1.50;;;0.80;;
9409;SDS011;4744;52.576;13.568;2023-04-24T10:55:13;3.50;;;0.80;;
9409;SDS011;4744;52.576;13.568;2023-04-24T10:58:00;0.70;;;0.68;;
9409;SDS011;4744;52.576;13.568;2023-04-24T11:00:28;1.38;;;0.80;;
9409;SDS011;4744;52.576;13.568;2023-04-24T11:02:56;1.52;;;0.80;;
9409;SDS011;4744;52.576;13.568;2023-04-24T11:05:48;0.88;;;0.70;;
9409;SDS011;4744;52.576;13.568;2023-04-24T11:08:32;0.75;;;0.50;;
9409;SDS011;4744;52.576;13.568;2023-04-24T11:11:06;0.60;;;0.60;;
9409;SDS011;4744;52.576;13.568;2023-04-24T11:16:32;1.42;;;0.70;;
9409;SDS011;4744;52.576;13.568;2023-04-24T11:19:00;1.48;;;0.70;;
9409;SDS011;4744;52.576;13.568;2023-04-24T11:21:32;1.20;;;1.10;;
9409;SDS011;4744;52.576;13.568;2023-04-24T11:24:24;0.85;;;0.52;;
9409;SDS011;4744;52.576;13.568;2023-04-24T11:26:53;2.65;;;0.63;;
9409;SDS011;4744;52.576;13.568;2023-04-24T11:29:23;1.77;;;1.10;;
9409;SDS011;4744;52.576;13.568;2023-04-24T11:32:14;5.38;;;1.30;;
9409;SDS011;4744;52.576;13.568;2023-04-24T11:34:45;0.50;;;0.50;;
9409;SDS011;4744;52.576;13.568;2023-04-24T11:37:13;1.05;;;0.80;;
9409;SDS011;4744;52.576;13.568;2023-04-24T11:39:40;1.00;;;1.00;;
9409;SDS011;4744;52.576;13.568;2023-04-24T11:42:07;5.38;;;1.20;;
9409;SDS011;4744;52.576;13.568;2023-04-24T11:44:36;2.67;;;0.90;;
9409;SDS011;4744;52.576;13.568;2023-04-24T11:47:04;1.95;;;1.10;;
9409;SDS011;4744;52.576;13.568;2023-04-24T11:49:32;2.10;;;0.90;;
9409;SDS011;4744;52.576;13.568;2023-04-24T11:51:59;1.48;;;0.88;;
9409;SDS011;4744;52.576;13.568;2023-04-24T11:54:26;2.97;;;0.98;;
9409;SDS011;4744;52.576;13.568;2023-04-24T11:56:54;1.42;;;0.90;;
9409;SDS011;4744;52.576;13.568;2023-04-24T11:59:22;1.90;;;1.25;;
9409;SDS011;4744;52.576;13.568;2023-04-24T12:01:50;1.30;;;0.90;;
9409;SDS011;4744;52.576;13.568;2023-04-24T12:04:17;1.52;;;1.13;;
9409;SDS011;4744;52.576;13.568;2023-04-24T12:06:59;1.67;;;1.10;;
9409;SDS011;4744;52.576;13.568;2023-04-24T12:09:26;1.67;;;1.00;;
9409;SDS011;4744;52.576;13.568;2023-04-24T12:11:54;0.82;;;0.70;;
9409;SDS011;4744;52.576;13.568;2023-04-24T12:14:21;0.90;;;0.90;;
9409;SDS011;4744;52.576;13.568;2023-04-24T12:16:50;1.23;;;0.60;;
9409;SDS011;4744;52.576;13.568;2023-04-24T12:19:18;0.85;;;0.70;;
9409;SDS011;4744;52.576;13.568;2023-04-24T12:21:58;0.80;;;0.80;;
9409;SDS011;4744;52.576;13.568;2023-04-24T12:24:26;0.73;;;0.68;;
9409;SDS011;4744;52.576;13.568;2023-04-24T12:26:53;0.80;;;0.80;;
9409;SDS011;4744;52.576;13.568;2023-04-24T12:29:20;0.73;;;0.73;;
9409;SDS011;4744;52.576;13.568;2023-04-24T12:31:47;1.33;;;0.68;;
9409;SDS011;4744;52.576;13.568;2023-04-24T12:34:18;0.68;;;0.60;;
9409;SDS011;4744;52.576;13.568;2023-04-24T12:36:46;0.70;;;0.70;;
9409;SDS011;4744;52.576;13.568;2023-04-24T12:39:16;1.08;;;0.68;;
9409;SDS011;4744;52.576;13.568;2023-04-24T12:41:50;0.82;;;0.82;;
9409;SDS011;4744;52.576;13.568;2023-04-24T12:44:28;1.15;;;0.85;;
9409;SDS011;4744;52.576;13.568;2023-04-24T12:46:56;0.95;;;0.80;;
9409;SDS011;4744;52.576;13.568;2023-04-24T12:49:24;0.90;;;0.70;;
9409;SDS011;4744;52.576;13.568;2023-04-24T12:51:51;0.75;;;0.70;;
9409;SDS011;4744;52.576;13.568;2023-04-24T12:54:18;2.70;;;0.77;;
9409;SDS011;4744;52.576;13.568;2023-04-24T12:56:45;1.00;;;0.73;;
9409;SDS011;4744;52.576;13.568;2023-04-24T12:59:12;0.52;;;0.52;;
9409;SDS011;4744;52.576;13.568;2023-04-24T13:01:39;1.00;;;0.85;;
9409;SDS011;4744;52.576;13.568;2023-04-24T13:04:06;0.98;;;0.98;;
9409;SDS011;4744;52.576;13.568;2023-04-24T13:06:35;0.60;;;0.60;;
9409;SDS011;4744;52.576;13.568;2023-04-24T13:09:02;0.77;;;0.70;;
9409;SDS011;4744;52.576;13.568;2023-04-24T13:11:29;0.70;;;0.70;;
9409;SDS011;4744;52.576;13.568;2023-04-24T13:13:56;2.17;;;1.00;;
9409;SDS011;4744;52.576;13.568;2023-04-24T13:16:23;1.45;;;0.80;;
9409;SDS011;4744;52.576;13.568;2023-04-24T13:18:50;1.52;;;0.70;;
9409;SDS011;4744;52.576;13.568;2023-04-24T13:21:17;0.85;;;0.82;;
9409;SDS011;4744;52.576;13.568;2023-04-24T13:23:46;0.70;;;0.70;;
9409;SDS011;4744;52.576;13.568;2023-04-24T13:26:12;1.27;;;0.70;;
9409;SDS011;4744;52.576;13.568;2023-04-24T13:28:39;2.42;;;0.88;;
9409;SDS011;4744;52.576;13.568;2023-04-24T13:31:06;0.88;;;0.68;;
9409;SDS011;4744;52.576;13.568;2023-04-24T13:33:33;1.15;;;0.70;;
9409;SDS011;4744;52.576;13.568;2023-04-24T13:36:00;1.85;;;0.70;;
9409;SDS011;4744;52.576;13.568;2023-04-24T13:38:27;0.60;;;0.60;;
9409;SDS011;4744;52.576;13.568;2023-04-24T13:40:55;2.00;;;0.80;;
9409;SDS011;4744;52.576;13.568;2023-04-24T13:43:22;0.65;;;0.65;;
9409;SDS011;4744;52.576;13.568;2023-04-24T13:45:49;0.22;;;0.22;;
9409;SDS011;4744;52.576;13.568;2023-04-24T13:48:16;1.85;;;0.70;;
9409;SDS011;4744;52.576;13.568;2023-04-24T13:50:43;0.77;;;0.60;;
9409;SDS011;4744;52.576;13.568;2023-04-24T13:53:13;1.85;;;0.68;;
9409;SDS011;4744;52.576;13.568;2023-04-24T13:55:40;0.70;;;0.70;;
9409;SDS011;4744;52.576;13.568;2023-04-24T13:58:08;1.08;;;0.43;;
9409;SDS011;4744;52.576;13.568;2023-04-24T14:00:35;1.25;;;0.60;;
9409;SDS011;4744;52.576;13.568;2023-04-24T14:03:02;3.20;;;0.50;;
9409;SDS011;4744;52.576;13.568;2023-04-24T14:05:29;2.97;;;0.70;;
9409;SDS011;4744;52.576;13.568;2023-04-24T14:07:56;0.90;;;0.65;;
9409;SDS011;4744;52.576;13.568;2023-04-24T14:10:23;3.95;;;1.23;;
9409;SDS011;4744;52.576;13.568;2023-04-24T14:12:50;1.50;;;0.63;;
9409;SDS011;4744;52.576;13.568;2023-04-24T14:15:19;2.13;;;0.65;;
9409;SDS011;4744;52.576;13.568;2023-04-24T14:17:47;0.75;;;0.68;;
9409;SDS011;4744;52.576;13.568;2023-04-24T14:20:14;1.80;;;0.70;;
9409;SDS011;4744;52.576;13.568;2023-04-24T14:22:41;3.92;;;0.95;;
9409;SDS011;4744;52.576;13.568;2023-04-24T14:25:08;0.50;;;0.50;;
9409;SDS011;4744;52.576;13.568;2023-04-24T14:27:35;1.38;;;0.60;;
9409;SDS011;4744;52.576;13.568;2023-04-24T14:30:02;1.60;;;0.65;;
9409;SDS011;4744;52.576;13.568;2023-04-24T14:32:32;1.30;;;0.77;;
9409;SDS011;4744;52.576;13.568;2023-04-24T14:34:59;3.00;;;0.80;;
9409;SDS011;4744;52.576;13.568;2023-04-24T14:37:26;0.70;;;0.70;;
9409;SDS011;4744;52.576;13.568;2023-04-24T14:39:56;1.73;;;0.70;;
9409;SDS011;4744;52.576;13.568;2023-04-24T14:42:22;1.60;;;0.68;;
9409;SDS011;4744;52.576;13.568;2023-04-24T14:44:50;3.70;;;0.70;;
9409;SDS011;4744;52.576;13.568;2023-04-24T14:47:17;1.40;;;0.80;;
9409;SDS011;4744;52.576;13.568;2023-04-24T14:49:48;0.60;;;0.60;;
9409;SDS011;4744;52.576;13.568;2023-04-24T14:52:15;0.82;;;0.70;;
9409;SDS011;4744;52.576;13.568;2023-04-24T14:54:42;1.60;;;0.80;;
9409;SDS011;4744;52.576;13.568;2023-04-24T14:57:09;0.47;;;0.47;;
9409;SDS011;4744;52.576;13.568;2023-04-24T14:59:39;1.45;;;0.70;;
9409;SDS011;4744;52.576;13.568;2023-04-24T15:02:06;2.45;;;0.50;;
9409;SDS011;4744;52.576;13.568;2023-04-24T15:04:33;1.85;;;0.70;;
9409;SDS011;4744;52.576;13.568;2023-04-24T15:07:01;0.70;;;0.70;;
9409;SDS011;4744;52.576;13.568;2023-04-24T15:09:28;2.95;;;0.95;;
9409;SDS011;4744;52.576;13.568;2023-04-24T15:11:57;2.88;;;0.90;;